sensor_id;sensor_type;location;lat;lon;timestamp;temperature;humidity
52621;DHT22;38515;53.160;6.990;2023-02-05T00:00:05;2.70;99.90
52621;DHT22;38515;53.160;6.990;2023-02-05T00:02:32;2.70;99.90
52621;DHT22;38515;53.160;6.990;2023-02-05T00:04:57;2.70;99.90
52621;DHT22;38515;53.160;6.990;2023-02-05T00:07:24;2.70;99.90
52621;DHT22;38515;53.160;6.990;2023-02-05T00:09:50;2.70;99.90
52621;DHT22;38515;53.160;6.990;2023-02-05T00:12:16;2.60;99.90
52621;DHT22;38515;53.160;6.990;2023-02-05T00:14:42;2.60;99.90
52621;DHT22;38515;53.160;6.990;2023-02-05T00:17:08;2.20;99.90
52621;DHT22;38515;53.160;6.990;2023-02-05T00:19:34;2.60;99.90
52621;DHT22;38515;53.160;6.990;2023-02-05T00:22:00;2.60;99.90
52621;DHT22;38515;53.160;6.990;2023-02-05T00:24:26;2.60;99.90
52621;DHT22;38515;53.160;6.990;2023-02-05T00:26:52;2.60;99.90
52621;DHT22;38515;53.160;6.990;2023-02-05T00:29:18;2.60;99.90
52621;DHT22;38515;53.160;6.990;2023-02-05T00:31:44;2.70;99.90
52621;DHT22;38515;53.160;6.990;2023-02-05T00:34:12;2.70;99.90
52621;DHT22;38515;53.160;6.990;2023-02-05T00:36:37;2.70;99.90
52621;DHT22;38515;53.160;6.990;2023-02-05T00:39:03;2.70;99.90
52621;DHT22;38515;53.160;6.990;2023-02-05T00:41:29;2.70;99.90
52621;DHT22;38515;53.160;6.990;2023-02-05T00:46:23;2.80;99.90
52621;DHT22;38515;53.160;6.990;2023-02-05T00:48:49;2.80;99.90
52621;DHT22;38515;53.160;6.990;2023-02-05T00:51:15;2.80;99.90
52621;DHT22;38515;53.160;6.990;2023-02-05T00:53:40;2.80;99.90
52621;DHT22;38515;53.160;6.990;2023-02-05T00:56:07;2.80;99.90
52621;DHT22;38515;53.160;6.990;2023-02-05T00:58:32;2.90;99.90
52621;DHT22;38515;53.160;6.990;2023-02-05T01:00:59;3.20;99.90
52621;DHT22;38515;53.160;6.990;2023-02-05T01:03:26;2.90;99.90
52621;DHT22;38515;53.160;6.990;2023-02-05T01:05:52;2.90;99.90
52621;DHT22;38515;53.160;6.990;2023-02-05T01:08:18;4.40;99.90
52621;DHT22;38515;53.160;6.990;2023-02-05T01:10:46;3.00;99.90
52621;DHT22;38515;53.160;6.990;2023-02-05T01:13:13;3.00;99.90
52621;DHT22;38515;53.160;6.990;2023-02-05T01:15:39;3.00;99.90
52621;DHT22;38515;53.160;6.990;2023-02-05T01:18:05;3.00;99.90
52621;DHT22;38515;53.160;6.990;2023-02-05T01:20:31;3.10;99.90
52621;DHT22;38515;53.160;6.990;2023-02-05T01:22:57;2.90;99.90
52621;DHT22;38515;53.160;6.990;2023-02-05T01:25:26;3.10;99.90
52621;DHT22;38515;53.160;6.990;2023-02-05T01:27:54;3.10;99.90
52621;DHT22;38515;53.160;6.990;2023-02-05T01:30:21;3.10;99.90
52621;DHT22;38515;53.160;6.990;2023-02-05T01:32:46;3.20;99.90
52621;DHT22;38515;53.160;6.990;2023-02-05T01:35:12;3.10;99.90
52621;DHT22;38515;53.160;6.990;2023-02-05T01:37:38;3.20;99.90
52621;DHT22;38515;53.160;6.990;2023-02-05T01:40:05;3.20;99.90
52621;DHT22;38515;53.160;6.990;2023-02-05T01:42:31;3.20;99.90
52621;DHT22;38515;53.160;6.990;2023-02-05T01:48:03;3.20;99.90
52621;DHT22;38515;53.160;6.990;2023-02-05T01:50:45;3.20;99.90
52621;DHT22;38515;53.160;6.990;2023-02-05T01:53:15;3.20;99.90
52621;DHT22;38515;53.160;6.990;2023-02-05T01:55:50;3.20;99.90
52621;DHT22;38515;53.160;6.990;2023-02-05T01:58:17;3.20;99.90
52621;DHT22;38515;53.160;6.990;2023-02-05T02:00:43;3.20;99.90
52621;DHT22;38515;53.160;6.990;2023-02-05T02:03:10;3.20;99.90
52621;DHT22;38515;53.160;6.990;2023-02-05T02:05:38;3.20;99.90
52621;DHT22;38515;53.160;6.990;2023-02-05T02:08:04;3.20;99.90
52621;DHT22;38515;53.160;6.990;2023-02-05T02:10:31;2.80;99.90
52621;DHT22;38515;53.160;6.990;2023-02-05T02:12:59;4.00;99.90
52621;DHT22;38515;53.160;6.990;2023-02-05T02:15:26;3.20;99.90
52621;DHT22;38515;53.160;6.990;2023-02-05T02:17:58;3.20;99.90
52621;DHT22;38515;53.160;6.990;2023-02-05T02:20:48;3.20;99.90
52621;DHT22;38515;53.160;6.990;2023-02-05T02:28:49;3.20;99.90
52621;DHT22;38515;53.160;6.990;2023-02-05T02:34:05;3.20;99.90
52621;DHT22;38515;53.160;6.990;2023-02-05T02:39:41;3.10;99.90
52621;DHT22;38515;53.160;6.990;2023-02-05T02:42:57;3.30;99.90
52621;DHT22;38515;53.160;6.990;2023-02-05T02:45:05;3.00;99.90
52621;DHT22;38515;53.160;6.990;2023-02-05T02:47:37;3.00;99.90
52621;DHT22;38515;53.160;6.990;2023-02-05T02:50:22;3.00;99.90
52621;DHT22;38515;53.160;6.990;2023-02-05T02:52:51;3.10;99.90
52621;DHT22;38515;53.160;6.990;2023-02-05T02:55:19;3.00;99.90
52621;DHT22;38515;53.160;6.990;2023-02-05T02:57:47;3.00;99.90
52621;DHT22;38515;53.160;6.990;2023-02-05T03:00:23;3.10;99.90
52621;DHT22;38515;53.160;6.990;2023-02-05T03:02:55;2.90;99.90
52621;DHT22;38515;53.160;6.990;2023-02-05T03:05:24;3.00;99.90
52621;DHT22;38515;53.160;6.990;2023-02-05T03:07:56;3.00;99.90
52621;DHT22;38515;53.160;6.990;2023-02-05T03:10:59;3.00;99.90
52621;DHT22;38515;53.160;6.990;2023-02-05T03:13:27;3.80;99.90
52621;DHT22;38515;53.160;6.990;2023-02-05T03:15:54;3.90;99.90
52621;DHT22;38515;53.160;6.990;2023-02-05T03:18:20;3.00;99.90
52621;DHT22;38515;53.160;6.990;2023-02-05T03:21:13;3.10;99.90
52621;DHT22;38515;53.160;6.990;2023-02-05T03:23:40;3.10;99.90
52621;DHT22;38515;53.160;6.990;2023-02-05T03:26:24;3.10;99.90
52621;DHT22;38515;53.160;6.990;2023-02-05T03:28:51;3.10;99.90
52621;DHT22;38515;53.160;6.990;2023-02-05T03:40:41;3.20;99.90
52621;DHT22;38515;53.160;6.990;2023-02-05T03:43:40;3.20;99.90
52621;DHT22;38515;53.160;6.990;2023-02-05T03:46:13;3.30;99.90
52621;DHT22;38515;53.160;6.990;2023-02-05T03:54:02;3.30;99.90
52621;DHT22;38515;53.160;6.990;2023-02-05T03:59:17;3.30;99.90
52621;DHT22;38515;53.160;6.990;2023-02-05T04:01:44;3.30;99.90
52621;DHT22;38515;53.160;6.990;2023-02-05T04:04:11;3.30;99.90
52621;DHT22;38515;53.160;6.990;2023-02-05T04:06:38;3.40;99.90
52621;DHT22;38515;53.160;6.990;2023-02-05T04:09:04;3.40;99.90
52621;DHT22;38515;53.160;6.990;2023-02-05T04:11:30;3.40;99.90
52621;DHT22;38515;53.160;6.990;2023-02-05T04:13:58;3.40;99.90
52621;DHT22;38515;53.160;6.990;2023-02-05T04:16:24;3.60;99.90
52621;DHT22;38515;53.160;6.990;2023-02-05T04:18:50;3.40;99.90
52621;DHT22;38515;53.160;6.990;2023-02-05T04:21:16;3.40;99.90
52621;DHT22;38515;53.160;6.990;2023-02-05T04:23:42;3.40;99.90
52621;DHT22;38515;53.160;6.990;2023-02-05T04:26:07;3.40;99.90
52621;DHT22;38515;53.160;6.990;2023-02-05T04:28:33;3.50;99.90
52621;DHT22;38515;53.160;6.990;2023-02-05T04:30:59;3.90;99.90
52621;DHT22;38515;53.160;6.990;2023-02-05T04:33:25;3.50;99.90
52621;DHT22;38515;53.160;6.990;2023-02-05T04:35:51;3.50;99.90
52621;DHT22;38515;53.160;6.990;2023-02-05T04:38:22;3.60;99.90
52621;DHT22;38515;53.160;6.990;2023-02-05T04:40:48;3.50;99.90
52621;DHT22;38515;53.160;6.990;2023-02-05T04:43:14;3.50;99.90
52621;DHT22;38515;53.160;6.990;2023-02-05T04:45:40;3.50;99.90
52621;DHT22;38515;53.160;6.990;2023-02-05T04:48:06;3.50;99.90
52621;DHT22;38515;53.160;6.990;2023-02-05T04:50:32;3.50;99.90
52621;DHT22;38515;53.160;6.990;2023-02-05T04:52:58;3.60;99.90
52621;DHT22;38515;53.160;6.990;2023-02-05T04:55:27;3.60;99.90
52621;DHT22;38515;53.160;6.990;2023-02-05T04:57:53;3.60;99.90
52621;DHT22;38515;53.160;6.990;2023-02-05T05:00:19;3.60;99.90
52621;DHT22;38515;53.160;6.990;2023-02-05T05:02:45;3.60;99.90
52621;DHT22;38515;53.160;6.990;2023-02-05T05:05:11;3.70;99.90
52621;DHT22;38515;53.160;6.990;2023-02-05T05:07:37;3.60;99.90
52621;DHT22;38515;53.160;6.990;2023-02-05T05:10:04;3.60;99.90
52621;DHT22;38515;53.160;6.990;2023-02-05T05:12:34;3.70;99.90
52621;DHT22;38515;53.160;6.990;2023-02-05T05:15:00;3.70;99.90
52621;DHT22;38515;53.160;6.990;2023-02-05T05:17:26;3.70;99.90
52621;DHT22;38515;53.160;6.990;2023-02-05T05:19:52;3.70;99.90
52621;DHT22;38515;53.160;6.990;2023-02-05T05:22:18;3.70;99.90
52621;DHT22;38515;53.160;6.990;2023-02-05T05:24:44;3.80;99.90
52621;DHT22;38515;53.160;6.990;2023-02-05T05:27:10;3.80;99.90
52621;DHT22;38515;53.160;6.990;2023-02-05T05:29:36;3.80;99.90
52621;DHT22;38515;53.160;6.990;2023-02-05T05:32:03;3.90;99.90
52621;DHT22;38515;53.160;6.990;2023-02-05T05:34:29;3.90;99.90
52621;DHT22;38515;53.160;6.990;2023-02-05T05:36:55;3.90;99.90
52621;DHT22;38515;53.160;6.990;2023-02-05T05:39:21;3.90;99.90
52621;DHT22;38515;53.160;6.990;2023-02-05T05:42:05;4.00;99.90
52621;DHT22;38515;53.160;6.990;2023-02-05T05:44:50;4.00;99.90
52621;DHT22;38515;53.160;6.990;2023-02-05T05:47:18;4.30;99.90
52621;DHT22;38515;53.160;6.990;2023-02-05T05:49:44;4.10;99.90
52621;DHT22;38515;53.160;6.990;2023-02-05T05:52:10;4.20;99.90
52621;DHT22;38515;53.160;6.990;2023-02-05T05:54:37;4.20;99.90
52621;DHT22;38515;53.160;6.990;2023-02-05T05:57:03;4.30;99.90
52621;DHT22;38515;53.160;6.990;2023-02-05T05:59:32;4.30;99.90
52621;DHT22;38515;53.160;6.990;2023-02-05T06:02:00;4.20;99.90
52621;DHT22;38515;53.160;6.990;2023-02-05T06:04:26;4.50;99.90
52621;DHT22;38515;53.160;6.990;2023-02-05T06:06:53;4.60;99.90
52621;DHT22;38515;53.160;6.990;2023-02-05T06:09:19;4.70;99.90
52621;DHT22;38515;53.160;6.990;2023-02-05T06:11:49;4.80;99.90
52621;DHT22;38515;53.160;6.990;2023-02-05T06:14:15;4.90;99.90
52621;DHT22;38515;53.160;6.990;2023-02-05T06:16:41;5.10;99.90
52621;DHT22;38515;53.160;6.990;2023-02-05T06:19:07;5.10;99.90
52621;DHT22;38515;53.160;6.990;2023-02-05T06:21:33;5.20;99.90
52621;DHT22;38515;53.160;6.990;2023-02-05T06:23:59;5.10;99.90
52621;DHT22;38515;53.160;6.990;2023-02-05T06:26:25;5.20;99.90
52621;DHT22;38515;53.160;6.990;2023-02-05T06:28:51;5.30;99.90
52621;DHT22;38515;53.160;6.990;2023-02-05T06:31:18;5.40;99.90
52621;DHT22;38515;53.160;6.990;2023-02-05T06:33:44;5.40;99.90
52621;DHT22;38515;53.160;6.990;2023-02-05T06:36:10;5.40;99.90
52621;DHT22;38515;53.160;6.990;2023-02-05T06:38:36;5.20;99.90
52621;DHT22;38515;53.160;6.990;2023-02-05T06:43:32;5.30;99.90
52621;DHT22;38515;53.160;6.990;2023-02-05T06:45:58;5.40;99.90
52621;DHT22;38515;53.160;6.990;2023-02-05T06:48:24;5.20;99.90
52621;DHT22;38515;53.160;6.990;2023-02-05T06:50:50;5.30;99.90
52621;DHT22;38515;53.160;6.990;2023-02-05T06:53:15;5.20;99.90
52621;DHT22;38515;53.160;6.990;2023-02-05T06:55:41;5.20;99.90
52621;DHT22;38515;53.160;6.990;2023-02-05T07:00:34;5.10;99.90
52621;DHT22;38515;53.160;6.990;2023-02-05T07:03:00;5.80;99.90
52621;DHT22;38515;53.160;6.990;2023-02-05T07:05:26;5.10;99.90
52621;DHT22;38515;53.160;6.990;2023-02-05T07:07:52;5.20;99.90
52621;DHT22;38515;53.160;6.990;2023-02-05T07:10:18;5.20;99.90
52621;DHT22;38515;53.160;6.990;2023-02-05T07:12:44;5.20;99.90
52621;DHT22;38515;53.160;6.990;2023-02-05T07:15:10;5.20;99.90
52621;DHT22;38515;53.160;6.990;2023-02-05T07:17:36;5.20;99.90
52621;DHT22;38515;53.160;6.990;2023-02-05T07:20:04;5.20;99.90
52621;DHT22;38515;53.160;6.990;2023-02-05T07:22:30;5.30;99.90
52621;DHT22;38515;53.160;6.990;2023-02-05T07:24:56;5.30;99.90
52621;DHT22;38515;53.160;6.990;2023-02-05T07:27:22;5.30;99.90
52621;DHT22;38515;53.160;6.990;2023-02-05T07:29:48;5.30;99.90
52621;DHT22;38515;53.160;6.990;2023-02-05T07:32:14;5.30;99.90
52621;DHT22;38515;53.160;6.990;2023-02-05T07:34:40;5.30;99.90
52621;DHT22;38515;53.160;6.990;2023-02-05T07:37:06;5.40;99.90
52621;DHT22;38515;53.160;6.990;2023-02-05T07:39:32;5.30;99.90
52621;DHT22;38515;53.160;6.990;2023-02-05T07:41:59;5.30;99.90
52621;DHT22;38515;53.160;6.990;2023-02-05T07:44:26;5.30;99.90
52621;DHT22;38515;53.160;6.990;2023-02-05T07:46:52;5.30;99.90
52621;DHT22;38515;53.160;6.990;2023-02-05T07:49:18;5.30;99.90
52621;DHT22;38515;53.160;6.990;2023-02-05T07:51:44;5.40;99.90
52621;DHT22;38515;53.160;6.990;2023-02-05T07:54:12;5.40;99.90
52621;DHT22;38515;53.160;6.990;2023-02-05T07:56:39;5.50;99.90
52621;DHT22;38515;53.160;6.990;2023-02-05T07:59:05;5.50;99.90
52621;DHT22;38515;53.160;6.990;2023-02-05T08:01:32;5.60;99.90
52621;DHT22;38515;53.160;6.990;2023-02-05T08:03:59;5.60;99.90
52621;DHT22;38515;53.160;6.990;2023-02-05T08:06:25;5.70;99.90
52621;DHT22;38515;53.160;6.990;2023-02-05T08:08:51;5.80;99.90
52621;DHT22;38515;53.160;6.990;2023-02-05T08:11:17;6.00;99.90
52621;DHT22;38515;53.160;6.990;2023-02-05T08:13:44;5.90;99.90
52621;DHT22;38515;53.160;6.990;2023-02-05T08:16:12;6.30;99.90
52621;DHT22;38515;53.160;6.990;2023-02-05T08:18:40;6.00;99.90
52621;DHT22;38515;53.160;6.990;2023-02-05T08:21:06;6.00;99.90
52621;DHT22;38515;53.160;6.990;2023-02-05T08:23:32;6.00;99.90
52621;DHT22;38515;53.160;6.990;2023-02-05T08:25:59;6.00;99.90
52621;DHT22;38515;53.160;6.990;2023-02-05T08:28:26;6.00;99.90
52621;DHT22;38515;53.160;6.990;2023-02-05T08:30:52;6.00;99.90
52621;DHT22;38515;53.160;6.990;2023-02-05T08:33:19;6.00;99.90
52621;DHT22;38515;53.160;6.990;2023-02-05T08:35:46;6.10;99.90
52621;DHT22;38515;53.160;6.990;2023-02-05T08:38:13;6.10;99.90
52621;DHT22;38515;53.160;6.990;2023-02-05T08:40:39;6.00;99.90
52621;DHT22;38515;53.160;6.990;2023-02-05T08:43:05;6.20;99.90
52621;DHT22;38515;53.160;6.990;2023-02-05T08:45:34;6.30;99.90
52621;DHT22;38515;53.160;6.990;2023-02-05T08:48:00;6.30;99.90
52621;DHT22;38515;53.160;6.990;2023-02-05T08:50:26;6.30;99.90
52621;DHT22;38515;53.160;6.990;2023-02-05T08:52:52;6.40;99.90
52621;DHT22;38515;53.160;6.990;2023-02-05T08:55:18;6.30;99.90
52621;DHT22;38515;53.160;6.990;2023-02-05T08:57:44;6.30;99.90
52621;DHT22;38515;53.160;6.990;2023-02-05T09:00:11;6.30;99.90
52621;DHT22;38515;53.160;6.990;2023-02-05T09:02:39;6.30;99.90
52621;DHT22;38515;53.160;6.990;2023-02-05T09:05:10;6.40;99.90
52621;DHT22;38515;53.160;6.990;2023-02-05T09:07:38;6.40;99.90
52621;DHT22;38515;53.160;6.990;2023-02-05T09:10:06;6.30;99.90
52621;DHT22;38515;53.160;6.990;2023-02-05T09:12:33;6.30;99.90
52621;DHT22;38515;53.160;6.990;2023-02-05T09:14:58;6.20;99.90
52621;DHT22;38515;53.160;6.990;2023-02-05T09:17:24;6.30;99.90
52621;DHT22;38515;53.160;6.990;2023-02-05T09:19:50;6.30;99.90
52621;DHT22;38515;53.160;6.990;2023-02-05T09:22:16;6.40;99.90
52621;DHT22;38515;53.160;6.990;2023-02-05T09:24:42;6.40;99.90
52621;DHT22;38515;53.160;6.990;2023-02-05T09:27:08;6.40;99.90
52621;DHT22;38515;53.160;6.990;2023-02-05T09:29:39;6.30;99.90
52621;DHT22;38515;53.160;6.990;2023-02-05T09:32:05;6.40;99.90
52621;DHT22;38515;53.160;6.990;2023-02-05T09:34:31;6.40;99.90
52621;DHT22;38515;53.160;6.990;2023-02-05T09:36:57;6.40;99.90
52621;DHT22;38515;53.160;6.990;2023-02-05T09:39:24;6.40;99.90
52621;DHT22;38515;53.160;6.990;2023-02-05T09:42:09;6.50;99.90
52621;DHT22;38515;53.160;6.990;2023-02-05T09:47:33;6.50;99.90
52621;DHT22;38515;53.160;6.990;2023-02-05T09:50:10;6.50;99.90
52621;DHT22;38515;53.160;6.990;2023-02-05T09:52:43;6.50;99.90
52621;DHT22;38515;53.160;6.990;2023-02-05T09:57:47;6.60;99.90
52621;DHT22;38515;53.160;6.990;2023-02-05T10:00:21;6.60;99.90
52621;DHT22;38515;53.160;6.990;2023-02-05T10:05:57;6.80;99.90
52621;DHT22;38515;53.160;6.990;2023-02-05T10:08:58;6.80;99.90
52621;DHT22;38515;53.160;6.990;2023-02-05T10:14:18;7.10;99.90
52621;DHT22;38515;53.160;6.990;2023-02-05T10:19:58;7.20;99.90
52621;DHT22;38515;53.160;6.990;2023-02-05T10:30:40;7.40;99.90
52621;DHT22;38515;53.160;6.990;2023-02-05T10:33:17;7.50;99.90
52621;DHT22;38515;53.160;6.990;2023-02-05T10:35:55;7.60;99.90
52621;DHT22;38515;53.160;6.990;2023-02-05T10:38:26;7.80;99.90
52621;DHT22;38515;53.160;6.990;2023-02-05T10:40:55;7.90;99.90
52621;DHT22;38515;53.160;6.990;2023-02-05T10:46:07;8.00;99.90
52621;DHT22;38515;53.160;6.990;2023-02-05T10:48:49;8.00;99.90
52621;DHT22;38515;53.160;6.990;2023-02-05T10:51:40;7.90;99.90
52621;DHT22;38515;53.160;6.990;2023-02-05T10:54:16;7.90;99.90
52621;DHT22;38515;53.160;6.990;2023-02-05T10:56:43;7.80;99.90
52621;DHT22;38515;53.160;6.990;2023-02-05T10:59:19;7.70;99.90
52621;DHT22;38515;53.160;6.990;2023-02-05T11:01:47;7.70;99.90
52621;DHT22;38515;53.160;6.990;2023-02-05T11:04:21;7.80;99.90
52621;DHT22;38515;53.160;6.990;2023-02-05T11:06:51;7.80;99.90
52621;DHT22;38515;53.160;6.990;2023-02-05T11:11:51;7.80;99.90
52621;DHT22;38515;53.160;6.990;2023-02-05T11:14:37;8.90;99.90
52621;DHT22;38515;53.160;6.990;2023-02-05T11:19:54;7.80;99.90
52621;DHT22;38515;53.160;6.990;2023-02-05T11:22:28;7.80;99.90
52621;DHT22;38515;53.160;6.990;2023-02-05T11:25:23;7.70;99.90
52621;DHT22;38515;53.160;6.990;2023-02-05T11:27:55;7.70;99.90
52621;DHT22;38515;53.160;6.990;2023-02-05T11:30:30;7.80;99.90
52621;DHT22;38515;53.160;6.990;2023-02-05T11:32:58;7.90;99.90
52621;DHT22;38515;53.160;6.990;2023-02-05T11:35:28;8.00;99.90
52621;DHT22;38515;53.160;6.990;2023-02-05T11:38:09;8.00;99.90
52621;DHT22;38515;53.160;6.990;2023-02-05T11:40:40;8.10;99.90
52621;DHT22;38515;53.160;6.990;2023-02-05T11:45:58;8.10;99.90
52621;DHT22;38515;53.160;6.990;2023-02-05T11:48:40;8.10;99.90
52621;DHT22;38515;53.160;6.990;2023-02-05T11:51:11;8.10;99.90
52621;DHT22;38515;53.160;6.990;2023-02-05T11:53:54;8.00;99.90
52621;DHT22;38515;53.160;6.990;2023-02-05T11:56:23;8.10;99.90
52621;DHT22;38515;53.160;6.990;2023-02-05T11:59:17;8.20;99.90
52621;DHT22;38515;53.160;6.990;2023-02-05T12:01:45;8.20;99.90
52621;DHT22;38515;53.160;6.990;2023-02-05T12:06:51;8.30;99.90
52621;DHT22;38515;53.160;6.990;2023-02-05T12:09:21;8.30;99.90
52621;DHT22;38515;53.160;6.990;2023-02-05T12:12:26;8.30;99.90
52621;DHT22;38515;53.160;6.990;2023-02-05T12:15:33;8.30;99.90
52621;DHT22;38515;53.160;6.990;2023-02-05T12:20:50;8.40;99.90
52621;DHT22;38515;53.160;6.990;2023-02-05T12:23:41;8.40;99.90
52621;DHT22;38515;53.160;6.990;2023-02-05T12:37:24;8.30;99.90
52621;DHT22;38515;53.160;6.990;2023-02-05T12:40:02;8.30;99.90
52621;DHT22;38515;53.160;6.990;2023-02-05T12:42:35;8.40;99.90
52621;DHT22;38515;53.160;6.990;2023-02-05T12:47:54;8.40;99.90
52621;DHT22;38515;53.160;6.990;2023-02-05T12:59:43;8.30;99.90
52621;DHT22;38515;53.160;6.990;2023-02-05T13:01:52;8.30;99.90
52621;DHT22;38515;53.160;6.990;2023-02-05T13:04:43;8.20;99.90
52621;DHT22;38515;53.160;6.990;2023-02-05T13:07:12;8.10;99.90
52621;DHT22;38515;53.160;6.990;2023-02-05T13:09:47;8.20;99.90
52621;DHT22;38515;53.160;6.990;2023-02-05T13:12:20;8.20;99.90
52621;DHT22;38515;53.160;6.990;2023-02-05T13:17:26;8.10;99.90
52621;DHT22;38515;53.160;6.990;2023-02-05T13:20:18;8.30;99.90
52621;DHT22;38515;53.160;6.990;2023-02-05T13:22:53;8.30;99.90
52621;DHT22;38515;53.160;6.990;2023-02-05T13:25:41;8.20;99.90
52621;DHT22;38515;53.160;6.990;2023-02-05T13:28:38;8.20;99.90
52621;DHT22;38515;53.160;6.990;2023-02-05T13:31:31;8.20;99.90
52621;DHT22;38515;53.160;6.990;2023-02-05T13:34:01;8.30;99.90
52621;DHT22;38515;53.160;6.990;2023-02-05T13:58:25;9.00;99.90
52621;DHT22;38515;53.160;6.990;2023-02-05T14:01:05;8.90;99.90
52621;DHT22;38515;53.160;6.990;2023-02-05T14:03:40;8.90;99.90
52621;DHT22;38515;53.160;6.990;2023-02-05T14:08:53;8.60;99.90
52621;DHT22;38515;53.160;6.990;2023-02-05T14:11:21;8.30;99.90
52621;DHT22;38515;53.160;6.990;2023-02-05T14:14:24;8.20;99.90
52621;DHT22;38515;53.160;6.990;2023-02-05T14:16:51;8.00;99.90
52621;DHT22;38515;53.160;6.990;2023-02-05T14:19:22;8.00;99.90
52621;DHT22;38515;53.160;6.990;2023-02-05T14:24:39;8.10;99.90
52621;DHT22;38515;53.160;6.990;2023-02-05T14:29:51;8.10;99.90
52621;DHT22;38515;53.160;6.990;2023-02-05T14:37:47;8.00;99.90
52621;DHT22;38515;53.160;6.990;2023-02-05T14:40:33;7.90;99.90
52621;DHT22;38515;53.160;6.990;2023-02-05T14:45:46;7.80;99.90
52621;DHT22;38515;53.160;6.990;2023-02-05T14:48:40;8.00;99.90
52621;DHT22;38515;53.160;6.990;2023-02-05T14:56:41;7.70;99.90
52621;DHT22;38515;53.160;6.990;2023-02-05T14:59:41;7.60;99.90
52621;DHT22;38515;53.160;6.990;2023-02-05T15:05:18;7.40;99.90
52621;DHT22;38515;53.160;6.990;2023-02-05T15:07:47;7.40;99.90
52621;DHT22;38515;53.160;6.990;2023-02-05T15:10:20;7.40;99.90
52621;DHT22;38515;53.160;6.990;2023-02-05T15:13:10;7.40;99.90
52621;DHT22;38515;53.160;6.990;2023-02-05T15:15:37;7.40;99.90
52621;DHT22;38515;53.160;6.990;2023-02-05T15:20:45;7.20;99.90
52621;DHT22;38515;53.160;6.990;2023-02-05T15:23:32;7.10;99.90
52621;DHT22;38515;53.160;6.990;2023-02-05T15:26:08;7.00;99.90
52621;DHT22;38515;53.160;6.990;2023-02-05T15:29:05;7.10;99.90
52621;DHT22;38515;53.160;6.990;2023-02-05T15:31:51;7.00;99.90
52621;DHT22;38515;53.160;6.990;2023-02-05T15:34:38;7.00;99.90
52621;DHT22;38515;53.160;6.990;2023-02-05T15:37:22;6.90;99.90
52621;DHT22;38515;53.160;6.990;2023-02-05T15:39:55;6.80;99.90
52621;DHT22;38515;53.160;6.990;2023-02-05T15:42:30;6.90;99.90
52621;DHT22;38515;53.160;6.990;2023-02-05T15:44:56;6.80;99.90
52621;DHT22;38515;53.160;6.990;2023-02-05T15:47:23;6.70;99.90
52621;DHT22;38515;53.160;6.990;2023-02-05T15:49:52;6.60;99.90
52621;DHT22;38515;53.160;6.990;2023-02-05T15:52:27;6.50;99.90
52621;DHT22;38515;53.160;6.990;2023-02-05T15:55:10;6.50;99.90
52621;DHT22;38515;53.160;6.990;2023-02-05T15:57:37;6.50;99.90
52621;DHT22;38515;53.160;6.990;2023-02-05T16:00:07;6.50;99.90
52621;DHT22;38515;53.160;6.990;2023-02-05T16:02:34;6.40;99.90
52621;DHT22;38515;53.160;6.990;2023-02-05T16:05:14;6.20;99.90
52621;DHT22;38515;53.160;6.990;2023-02-05T16:07:42;6.30;99.90
52621;DHT22;38515;53.160;6.990;2023-02-05T16:10:23;6.20;99.90
52621;DHT22;38515;53.160;6.990;2023-02-05T16:13:10;6.10;99.90
52621;DHT22;38515;53.160;6.990;2023-02-05T16:16:01;6.00;99.90
52621;DHT22;38515;53.160;6.990;2023-02-05T16:21:03;5.80;99.90
52621;DHT22;38515;53.160;6.990;2023-02-05T16:23:43;5.60;99.90
52621;DHT22;38515;53.160;6.990;2023-02-05T16:26:27;5.70;99.90
52621;DHT22;38515;53.160;6.990;2023-02-05T16:28:58;7.20;99.90
52621;DHT22;38515;53.160;6.990;2023-02-05T16:31:25;5.60;99.90
52621;DHT22;38515;53.160;6.990;2023-02-05T16:34:04;5.60;99.90
52621;DHT22;38515;53.160;6.990;2023-02-05T16:36:38;5.60;99.90
52621;DHT22;38515;53.160;6.990;2023-02-05T16:39:20;5.60;99.90
52621;DHT22;38515;53.160;6.990;2023-02-05T16:42:04;5.50;99.90
52621;DHT22;38515;53.160;6.990;2023-02-05T16:44:38;5.50;99.90
52621;DHT22;38515;53.160;6.990;2023-02-05T16:49:36;5.40;99.90
52621;DHT22;38515;53.160;6.990;2023-02-05T16:52:02;5.40;99.90
52621;DHT22;38515;53.160;6.990;2023-02-05T16:54:32;5.40;99.90
52621;DHT22;38515;53.160;6.990;2023-02-05T16:57:40;5.40;99.90
52621;DHT22;38515;53.160;6.990;2023-02-05T17:00:12;5.40;99.90
52621;DHT22;38515;53.160;6.990;2023-02-05T17:02:43;5.30;99.90
52621;DHT22;38515;53.160;6.990;2023-02-05T17:05:25;5.30;99.90
52621;DHT22;38515;53.160;6.990;2023-02-05T17:07:58;5.20;99.90
52621;DHT22;38515;53.160;6.990;2023-02-05T17:10:26;5.20;99.90
52621;DHT22;38515;53.160;6.990;2023-02-05T17:12:55;5.40;99.90
52621;DHT22;38515;53.160;6.990;2023-02-05T17:17:58;5.10;99.90
52621;DHT22;38515;53.160;6.990;2023-02-05T17:20:29;5.00;99.90
52621;DHT22;38515;53.160;6.990;2023-02-05T17:25:51;5.20;99.90
52621;DHT22;38515;53.160;6.990;2023-02-05T17:28:22;5.00;99.90
52621;DHT22;38515;53.160;6.990;2023-02-05T17:30:51;4.90;99.90
52621;DHT22;38515;53.160;6.990;2023-02-05T17:33:23;4.90;99.90
52621;DHT22;38515;53.160;6.990;2023-02-05T17:35:50;4.90;99.90
52621;DHT22;38515;53.160;6.990;2023-02-05T17:38:16;4.80;99.90
52621;DHT22;38515;53.160;6.990;2023-02-05T17:40:45;4.80;99.90
52621;DHT22;38515;53.160;6.990;2023-02-05T17:43:11;4.70;99.90
52621;DHT22;38515;53.160;6.990;2023-02-05T17:45:39;4.70;99.90
52621;DHT22;38515;53.160;6.990;2023-02-05T17:48:06;4.70;99.90
52621;DHT22;38515;53.160;6.990;2023-02-05T17:50:33;4.70;99.90
52621;DHT22;38515;53.160;6.990;2023-02-05T17:53:00;4.10;99.90
52621;DHT22;38515;53.160;6.990;2023-02-05T17:55:27;4.60;99.90
52621;DHT22;38515;53.160;6.990;2023-02-05T17:57:53;4.70;99.90
52621;DHT22;38515;53.160;6.990;2023-02-05T18:00:22;4.70;99.90
52621;DHT22;38515;53.160;6.990;2023-02-05T18:02:51;4.60;99.90
52621;DHT22;38515;53.160;6.990;2023-02-05T18:05:18;4.60;99.90
52621;DHT22;38515;53.160;6.990;2023-02-05T18:07:55;4.60;99.90
52621;DHT22;38515;53.160;6.990;2023-02-05T18:10:27;4.60;99.90
52621;DHT22;38515;53.160;6.990;2023-02-05T18:12:54;4.60;99.90
52621;DHT22;38515;53.160;6.990;2023-02-05T18:15:21;4.60;99.90
52621;DHT22;38515;53.160;6.990;2023-02-05T18:17:48;4.60;99.90
52621;DHT22;38515;53.160;6.990;2023-02-05T18:20:15;4.70;99.90
52621;DHT22;38515;53.160;6.990;2023-02-05T18:22:41;4.70;99.90
52621;DHT22;38515;53.160;6.990;2023-02-05T18:25:07;4.70;99.90
52621;DHT22;38515;53.160;6.990;2023-02-05T18:27:34;4.80;99.90
52621;DHT22;38515;53.160;6.990;2023-02-05T18:30:00;4.80;99.90
52621;DHT22;38515;53.160;6.990;2023-02-05T18:32:26;4.80;99.90
52621;DHT22;38515;53.160;6.990;2023-02-05T18:34:52;4.80;99.90
52621;DHT22;38515;53.160;6.990;2023-02-05T18:37:19;4.80;99.90
52621;DHT22;38515;53.160;6.990;2023-02-05T18:39:45;4.90;99.90
52621;DHT22;38515;53.160;6.990;2023-02-05T18:42:12;4.80;99.90
52621;DHT22;38515;53.160;6.990;2023-02-05T18:44:38;4.70;99.90
52621;DHT22;38515;53.160;6.990;2023-02-05T18:47:04;4.80;99.90
52621;DHT22;38515;53.160;6.990;2023-02-05T18:49:33;4.70;99.90